Time;durP1;ratioP1;P1;durP2;ratioP2;P2;SDS_P1;SDS_P2;PMS_P1;PMS_P2;Temp;Humidity;BMP_temperature;BMP_pressure;BME280_temperature;BME280_humidity;BME280_pressure;Samples;Min_cycle;Max_cycle;Signal;HPM_P1;HPM_P2
2021/12/01 00:02:16;;;;;;;0.60;0.60;;;22.40;45.20;;;;;;5086631;27;43666;-63
2021/12/01 00:04:43;;;;;;;0.75;0.60;;;22.40;45.30;;;;;;5082459;27;44942;-63
2021/12/01 00:07:12;;;;;;;0.57;0.57;;;22.40;45.30;;;;;;5084694;27;43964;-61
2021/12/01 00:09:39;;;;;;;0.55;0.55;;;22.40;45.30;;;;;;5092288;27;43434;-61
2021/12/01 00:12:07;;;;;;;0.60;0.60;;;22.40;45.30;;;;;;5085658;27;43618;-62
2021/12/01 00:14:34;;;;;;;1.00;0.75;;;22.40;45.30;;;;;;5080787;27;44668;-63
2021/12/01 00:17:02;;;;;;;0.68;0.68;;;22.40;45.30;;;;;;5100544;27;43536;-62
2021/12/01 00:19:29;;;;;;;0.68;0.68;;;22.40;46.00;;;;;;5085400;27;43462;-61
2021/12/01 00:21:57;;;;;;;0.50;0.50;;;22.30;45.30;;;;;;5062232;27;43657;-61
2021/12/01 00:24:24;;;;;;;0.60;0.60;;;22.30;45.30;;;;;;5084856;27;45047;-62
2021/12/01 00:26:52;;;;;;;0.50;0.50;;;22.30;45.40;;;;;;5099284;27;43498;-63
2021/12/01 00:29:19;;;;;;;0.70;0.60;;;22.30;45.40;;;;;;5064413;28;43478;-62
2021/12/01 00:31:46;;;;;;;0.55;0.55;;;22.30;45.40;;;;;;5061695;27;43694;-62
2021/12/01 00:34:15;;;;;;;0.50;0.50;;;22.30;45.40;;;;;;5057852;27;45013;-63
2021/12/01 00:36:45;;;;;;;0.85;0.65;;;22.30;45.40;;;;;;5095880;27;43990;-62
2021/12/01 00:39:12;;;;;;;1.23;0.70;;;22.30;45.40;;;;;;5081098;27;43423;-62
2021/12/01 00:41:39;;;;;;;0.63;0.63;;;22.30;45.40;;;;;;5082199;27;43501;-62
2021/12/01 00:44:09;;;;;;;0.55;0.55;;;22.30;45.50;;;;;;5097190;27;44987;-61
2021/12/01 00:46:42;;;;;;;0.80;0.80;;;22.30;45.50;;;;;;5092345;27;43679;-61
2021/12/01 00:49:10;;;;;;;0.80;0.80;;;22.30;45.50;;;;;;5079481;27;43424;-61
2021/12/01 00:51:37;;;;;;;0.60;0.60;;;22.20;45.50;;;;;;5077348;27;43659;-64
2021/12/01 00:54:05;;;;;;;0.73;0.50;;;22.20;45.50;;;;;;5099027;27;44718;-62
2021/12/01 00:56:32;;;;;;;0.90;0.90;;;22.20;45.50;;;;;;5085572;27;43534;-63
2021/12/01 00:59:00;;;;;;;1.15;0.80;;;22.20;45.50;;;;;;5076456;27;43662;-62
2021/12/01 01:01:28;;;;;;;0.80;0.80;;;22.20;45.50;;;;;;5072608;27;43663;-62
2021/12/01 01:03:55;;;;;;;0.80;0.75;;;22.20;45.50;;;;;;5096729;27;44054;-62
2021/12/01 01:06:22;;;;;;;1.15;0.80;;;22.20;45.50;;;;;;5079076;27;44152;-62
2021/12/01 01:08:50;;;;;;;1.17;0.88;;;22.20;45.60;;;;;;5074107;27;44068;-62
2021/12/01 01:16:52;;;;;;;0.93;0.93;;;22.20;45.60;;;;;;5082120;27;44040;-62
2021/12/01 01:19:20;;;;;;;1.07;0.97;;;22.20;45.60;;;;;;5080408;27;43466;-61
2021/12/01 01:21:50;;;;;;;1.27;1.10;;;22.20;45.60;;;;;;5094724;27;43977;-63
2021/12/01 01:24:19;;;;;;;0.80;0.80;;;22.20;45.60;;;;;;5086076;27;45010;-64
2021/12/01 01:26:47;;;;;;;1.30;1.20;;;22.20;45.70;;;;;;5079069;27;43780;-62
2021/12/01 01:29:14;;;;;;;1.30;0.95;;;22.20;45.70;;;;;;5078642;27;43387;-61
2021/12/01 01:31:42;;;;;;;1.98;1.10;;;22.10;45.60;;;;;;5100007;27;43597;-62
2021/12/01 01:34:09;;;;;;;1.20;1.10;;;22.10;45.60;;;;;;5081212;27;43805;-62
2021/12/01 01:36:37;;;;;;;1.25;1.15;;;22.10;45.70;;;;;;5077047;27;43764;-61
2021/12/01 01:39:05;;;;;;;1.25;1.15;;;22.10;45.60;;;;;;5091093;27;43402;-63
2021/12/01 01:41:32;;;;;;;1.17;1.08;;;22.10;45.60;;;;;;5091591;27;43628;-62
2021/12/01 01:44:00;;;;;;;1.10;1.00;;;22.10;45.60;;;;;;5082574;27;44830;-61
2021/12/01 01:46:35;;;;;;;2.17;1.38;;;22.10;45.70;;;;;;5074901;27;43803;-62
2021/12/01 01:49:16;;;;;;;1.20;1.10;;;22.10;45.70;;;;;;5102318;27;43367;-61
2021/12/01 01:51:45;;;;;;;;;;;22.10;45.70;;;;;;5084773;27;43493;-61
2021/12/01 01:54:13;;;;;;;1.70;1.10;;;22.00;45.70;;;;;;5057977;28;44834;-61
2021/12/01 01:56:41;;;;;;;1.60;1.05;;;22.00;45.70;;;;;;5076469;27;43413;-62
2021/12/01 01:59:10;;;;;;;2.35;1.30;;;22.00;45.80;;;;;;5099939;27;43434;-62
2021/12/01 02:01:54;;;;;;;1.20;1.10;;;22.00;45.70;;;;;;5063081;28;44111;-61
2021/12/01 02:04:23;;;;;;;1.35;0.90;;;22.00;45.70;;;;;;5084802;27;43895;-61
2021/12/01 02:06:50;;;;;;;1.45;1.15;;;22.00;45.80;;;;;;5099513;27;43482;-61
2021/12/01 02:09:23;;;;;;;1.48;1.05;;;22.00;45.80;;;;;;5093387;27;43477;-62
2021/12/01 02:11:53;;;;;;;2.38;1.27;;;22.00;45.70;;;;;;5082980;27;43460;-62
2021/12/01 02:14:21;;;;;;;1.48;1.25;;;22.00;45.80;;;;;;5089955;27;45113;-61
2021/12/01 02:16:49;;;;;;;1.23;1.10;;;22.00;45.80;;;;;;5099589;27;43979;-62
2021/12/01 02:19:17;;;;;;;1.85;1.40;;;22.00;45.80;;;;;;5089665;27;43784;-63
2021/12/01 02:21:45;;;;;;;1.48;1.10;;;22.00;45.80;;;;;;5082998;27;44207;-61
2021/12/01 02:24:14;;;;;;;1.13;1.02;;;22.00;45.80;;;;;;5078997;27;43998;-61
2021/12/01 02:26:44;;;;;;;2.10;1.13;;;22.00;45.80;;;;;;5100241;27;43474;-61
2021/12/01 02:29:15;;;;;;;1.10;1.00;;;22.00;45.80;;;;;;5084490;27;43413;-61
2021/12/01 02:31:43;;;;;;;2.08;1.40;;;21.90;45.80;;;;;;5081008;27;43585;-61
2021/12/01 02:34:17;;;;;;;1.95;1.00;;;22.00;45.80;;;;;;5077747;27;44872;-62
2021/12/01 02:36:51;;;;;;;1.70;1.20;;;21.90;45.80;;;;;;5096377;27;43505;-62
2021/12/01 02:39:18;;;;;;;1.50;1.10;;;22.00;45.80;;;;;;5083054;27;43429;-62
2021/12/01 02:41:52;;;;;;;2.08;1.20;;;21.90;45.80;;;;;;5082876;27;43586;-61
2021/12/01 02:44:20;;;;;;;2.03;1.35;;;21.90;45.80;;;;;;5099604;27;45030;-61
2021/12/01 02:46:49;;;;;;;1.50;1.02;;;21.90;45.80;;;;;;5089840;27;43938;-62
2021/12/01 02:49:24;;;;;;;1.30;1.13;;;21.90;45.80;;;;;;5080783;27;43995;-62
2021/12/01 02:51:56;;;;;;;2.00;1.23;;;21.90;45.80;;;;;;5089476;27;43610;-61
2021/12/01 02:54:26;;;;;;;1.65;1.00;;;21.90;45.80;;;;;;5094628;27;43844;-61
2021/12/01 02:56:55;;;;;;;1.40;1.00;;;21.90;45.90;;;;;;5072096;28;43936;-60
2021/12/01 02:59:24;;;;;;;1.92;1.23;;;21.90;45.90;;;;;;5081114;27;43412;-61
2021/12/01 03:01:54;;;;;;;1.52;1.20;;;21.90;45.90;;;;;;5079849;27;43624;-61
2021/12/01 03:04:22;;;;;;;1.13;0.82;;;21.90;46.00;;;;;;5095972;27;44026;-61
2021/12/01 03:06:51;;;;;;;1.15;1.02;;;21.90;45.80;;;;;;5064337;28;43394;-61
2021/12/01 03:09:18;;;;;;;1.63;1.20;;;21.90;45.80;;;;;;5081575;27;43554;-62
2021/12/01 03:11:45;;;;;;;1.63;1.00;;;21.90;45.80;;;;;;5099427;27;43676;-62
2021/12/01 03:14:16;;;;;;;1.30;0.90;;;21.90;45.70;;;;;;5091505;27;44088;-62
2021/12/01 03:16:44;;;;;;;0.98;0.70;;;22.00;45.70;;;;;;5082352;27;43979;-61
2021/12/01 03:19:12;;;;;;;1.52;1.05;;;22.00;45.70;;;;;;5080051;27;43469;-61
2021/12/01 03:21:41;;;;;;;1.48;1.15;;;22.00;45.60;;;;;;5092629;27;43495;-61
2021/12/01 03:24:09;;;;;;;1.45;0.90;;;22.00;45.60;;;;;;5087684;27;44191;-62
2021/12/01 03:26:38;;;;;;;0.85;0.77;;;22.00;45.50;;;;;;5080516;27;43525;-62
2021/12/01 03:29:06;;;;;;;1.48;1.20;;;21.90;45.60;;;;;;5070621;27;43419;-60
2021/12/01 03:31:36;;;;;;;1.10;1.00;;;21.90;45.70;;;;;;5084807;27;43583;-61
2021/12/01 03:34:05;;;;;;;1.30;1.00;;;21.90;45.70;;;;;;5083387;27;45074;-63
2021/12/01 03:36:33;;;;;;;1.10;1.00;;;21.90;45.80;;;;;;5079551;27;43458;-62
2021/12/01 03:39:00;;;;;;;1.95;1.15;;;21.80;45.80;;;;;;5091136;27;43453;-62
2021/12/01 03:41:27;;;;;;;1.75;1.10;;;21.80;45.80;;;;;;5093903;27;43565;-63
2021/12/01 03:43:55;;;;;;;1.50;1.20;;;21.80;45.90;;;;;;5079677;27;44443;-61
2021/12/01 03:46:23;;;;;;;1.42;0.98;;;21.80;45.90;;;;;;5057501;28;45081;-62
2021/12/01 03:48:51;;;;;;;1.50;1.00;;;21.80;45.90;;;;;;5073765;27;43430;-63
2021/12/01 03:51:22;;;;;;;2.47;1.05;;;21.80;45.90;;;;;;5095226;27;43545;-61
2021/12/01 03:53:52;;;;;;;1.75;1.00;;;21.80;46.00;;;;;;5078794;27;44671;-63
2021/12/01 03:56:20;;;;;;;1.30;1.10;;;21.80;46.00;;;;;;5084051;27;43553;-62
2021/12/01 03:58:48;;;;;;;1.20;1.10;;;21.70;46.00;;;;;;5100185;27;43395;-62
2021/12/01 04:01:15;;;;;;;1.33;1.23;;;21.70;46.10;;;;;;5090187;27;43505;-62
2021/12/01 04:03:43;;;;;;;1.30;1.08;;;21.70;46.10;;;;;;5082647;27;44669;-61
2021/12/01 04:06:11;;;;;;;2.13;1.08;;;21.70;46.00;;;;;;5074044;27;43849;-61
2021/12/01 04:08:38;;;;;;;1.25;1.00;;;21.70;46.80;;;;;;5097483;27;43477;-61
2021/12/01 04:11:06;;;;;;;1.73;1.00;;;21.70;46.10;;;;;;5087232;27;43640;-62
2021/12/01 04:13:33;;;;;;;1.52;1.20;;;21.70;46.10;;;;;;5075631;27;44084;-62
2021/12/01 04:16:00;;;;;;;1.63;1.00;;;21.70;46.10;;;;;;5095455;27;43468;-62
2021/12/01 04:18:28;;;;;;;1.25;0.93;;;21.70;46.10;;;;;;5098887;27;43524;-61
2021/12/01 04:20:55;;;;;;;1.48;1.00;;;21.70;46.10;;;;;;5082800;27;43573;-61
2021/12/01 04:23:23;;;;;;;1.85;1.20;;;21.70;46.10;;;;;;5072534;27;43916;-61
2021/12/01 04:25:50;;;;;;;1.55;1.02;;;21.70;46.10;;;;;;5096486;27;43760;-61
2021/12/01 04:28:18;;;;;;;2.08;1.20;;;21.70;46.10;;;;;;5097945;27;43477;-62
2021/12/01 04:30:46;;;;;;;2.58;1.15;;;21.70;46.00;;;;;;5078267;27;43683;-62
2021/12/01 04:33:13;;;;;;;2.38;1.40;;;21.70;46.00;;;;;;5070846;27;44849;-63
2021/12/01 04:35:41;;;;;;;1.08;0.98;;;21.70;46.00;;;;;;5093510;27;43429;-62
2021/12/01 04:38:08;;;;;;;1.80;1.30;;;21.70;46.00;;;;;;5092923;27;43447;-61
2021/12/01 04:40:36;;;;;;;2.20;1.10;;;21.60;46.00;;;;;;5074511;27;44046;-61
2021/12/01 04:43:03;;;;;;;1.50;1.00;;;21.60;46.00;;;;;;5071246;27;43847;-62
2021/12/01 04:45:32;;;;;;;2.55;1.23;;;21.60;46.10;;;;;;5090931;27;43518;-61
2021/12/01 04:47:59;;;;;;;1.95;1.23;;;21.70;46.10;;;;;;5089388;27;43488;-62
2021/12/01 04:50:27;;;;;;;1.67;1.08;;;21.60;46.10;;;;;;5071103;27;43496;-62
2021/12/01 04:52:57;;;;;;;1.77;1.25;;;21.60;46.10;;;;;;5093924;27;44964;-62
2021/12/01 04:55:26;;;;;;;2.88;1.50;;;21.60;46.10;;;;;;5093616;27;43646;-61
2021/12/01 04:57:54;;;;;;;2.30;1.10;;;21.60;46.20;;;;;;5085887;27;43465;-61
2021/12/01 05:00:26;;;;;;;2.28;1.30;;;21.60;46.20;;;;;;5070043;27;43499;-61
2021/12/01 05:02:54;;;;;;;2.03;1.48;;;21.50;46.10;;;;;;5091643;27;44635;-62
2021/12/01 05:05:25;;;;;;;1.88;1.30;;;21.60;46.20;;;;;;5091578;27;43744;-61
2021/12/01 05:07:53;;;;;;;1.60;1.33;;;21.60;46.20;;;;;;5076349;27;43455;-61
2021/12/01 05:10:21;;;;;;;1.45;1.00;;;21.60;46.30;;;;;;5090858;27;43447;-63
2021/12/01 05:12:48;;;;;;;1.83;1.20;;;21.60;46.10;;;;;;5090473;27;44792;-62
2021/12/01 05:15:15;;;;;;;1.50;1.17;;;21.60;46.20;;;;;;5088328;27;44281;-61
2021/12/01 05:17:43;;;;;;;2.67;1.08;;;21.60;46.10;;;;;;5075739;27;43568;-62
2021/12/01 05:20:13;;;;;;;1.83;1.20;;;21.60;46.20;;;;;;5065269;28;43621;-62
2021/12/01 05:22:42;;;;;;;1.33;1.10;;;21.60;46.20;;;;;;5088348;27;43997;-63
2021/12/01 05:25:11;;;;;;;1.20;0.90;;;21.50;46.20;;;;;;5074911;27;43680;-62
2021/12/01 05:27:38;;;;;;;1.52;1.00;;;21.50;46.30;;;;;;5072274;27;43776;-61
2021/12/01 05:30:07;;;;;;;1.33;1.08;;;21.50;46.20;;;;;;5091403;27;43503;-62
2021/12/01 05:32:34;;;;;;;1.48;0.90;;;21.50;46.20;;;;;;5086711;27;43893;-61
2021/12/01 05:35:02;;;;;;;1.17;0.95;;;21.50;46.20;;;;;;5076287;27;43474;-62
2021/12/01 05:37:30;;;;;;;2.17;1.30;;;21.50;46.30;;;;;;5077725;27;43432;-63
2021/12/01 05:39:57;;;;;;;0.77;0.77;;;21.50;46.30;;;;;;5092275;27;43542;-61
2021/12/01 05:42:24;;;;;;;1.70;0.75;;;21.50;46.40;;;;;;5083930;27;44059;-62
2021/12/01 05:44:52;;;;;;;1.17;0.88;;;21.40;46.30;;;;;;5079923;27;43434;-62
2021/12/01 05:47:19;;;;;;;1.13;0.90;;;21.50;46.40;;;;;;5068478;27;43468;-62
2021/12/01 05:49:46;;;;;;;1.55;0.93;;;21.50;46.50;;;;;;5088014;27;43515;-63
2021/12/01 05:52:15;;;;;;;1.10;0.90;;;21.50;46.40;;;;;;5087384;27;43751;-63
2021/12/01 05:54:44;;;;;;;0.88;0.70;;;21.40;46.40;;;;;;5083007;27;43419;-62
2021/12/01 05:57:11;;;;;;;0.88;0.82;;;21.40;46.40;;;;;;5067797;27;43434;-63
2021/12/01 05:59:38;;;;;;;0.85;0.70;;;21.50;46.50;;;;;;5070844;27;43536;-61
2021/12/01 06:02:08;;;;;;;1.52;0.88;;;21.40;46.40;;;;;;5084352;27;44159;-64
2021/12/01 06:04:36;;;;;;;1.00;0.65;;;21.40;46.40;;;;;;5086374;27;43403;-62
2021/12/01 06:07:04;;;;;;;1.13;0.73;;;21.40;46.40;;;;;;5087162;27;43510;-61
2021/12/01 06:09:31;;;;;;;0.85;0.55;;;21.40;46.40;;;;;;5096202;27;43500;-62
2021/12/01 06:11:59;;;;;;;0.98;0.90;;;21.40;46.40;;;;;;5087450;27;44961;-62
2021/12/01 06:14:27;;;;;;;0.63;0.60;;;21.40;46.50;;;;;;5075108;27;44064;-61
2021/12/01 06:16:54;;;;;;;0.50;0.50;;;21.40;46.50;;;;;;5085940;27;43467;-62
2021/12/01 06:19:21;;;;;;;0.85;0.60;;;21.40;46.60;;;;;;5091210;27;43573;-61
2021/12/01 06:21:49;;;;;;;0.50;0.50;;;21.40;46.50;;;;;;5083342;27;44917;-63
2021/12/01 06:24:16;;;;;;;0.50;0.50;;;21.40;46.60;;;;;;5101551;27;44214;-62
2021/12/01 06:26:44;;;;;;;0.50;0.50;;;21.40;46.50;;;;;;5099806;27;43544;-62
2021/12/01 06:29:11;;;;;;;0.38;0.38;;;21.40;46.50;;;;;;5086738;27;43609;-62
2021/12/01 06:31:38;;;;;;;0.32;0.30;;;21.50;46.60;;;;;;5080661;27;44032;-61
2021/12/01 06:34:06;;;;;;;0.82;0.52;;;21.40;46.60;;;;;;5078470;27;43639;-62
2021/12/01 06:36:33;;;;;;;0.50;0.50;;;21.50;46.60;;;;;;5100330;27;43473;-62
2021/12/01 06:39:01;;;;;;;0.43;0.43;;;21.50;46.60;;;;;;5083966;27;43566;-61
2021/12/01 06:41:28;;;;;;;0.40;0.40;;;21.50;46.60;;;;;;5079295;27;44546;-63
2021/12/01 06:43:55;;;;;;;0.50;0.40;;;21.50;46.60;;;;;;5076787;27;43518;-61
2021/12/01 06:46:24;;;;;;;0.43;0.43;;;21.50;46.60;;;;;;5080823;27;43700;-62
2021/12/01 06:48:52;;;;;;;10.35;0.80;;;21.50;46.60;;;;;;5071763;27;43571;-63
2021/12/01 06:51:20;;;;;;;0.38;0.38;;;21.50;46.60;;;;;;5074692;27;44626;-62
2021/12/01 06:53:47;;;;;;;0.45;0.43;;;21.50;46.50;;;;;;5086622;27;44024;-62
2021/12/01 06:56:16;;;;;;;0.40;0.40;;;21.50;46.50;;;;;;5089143;27;43469;-62
2021/12/01 06:58:43;;;;;;;0.30;0.30;;;21.50;46.50;;;;;;5073169;27;43595;-62
2021/12/01 07:01:11;;;;;;;0.40;0.40;;;21.60;46.50;;;;;;5076117;27;44377;-61
2021/12/01 07:03:41;;;;;;;0.50;0.50;;;21.60;46.50;;;;;;5099607;27;43465;-62
2021/12/01 07:06:08;;;;;;;0.40;0.40;;;21.60;46.50;;;;;;5093542;27;43741;-62
2021/12/01 07:08:36;;;;;;;0.32;0.32;;;21.60;46.50;;;;;;5068958;28;43547;-62
2021/12/01 07:11:04;;;;;;;0.40;0.40;;;21.60;46.40;;;;;;5076366;27;44972;-63
2021/12/01 07:13:33;;;;;;;0.40;0.40;;;21.70;46.40;;;;;;5081401;27;43541;-61
2021/12/01 07:16:01;;;;;;;0.47;0.30;;;21.70;46.40;;;;;;5084040;27;43536;-62
2021/12/01 07:18:29;;;;;;;0.68;0.65;;;21.70;46.40;;;;;;5076890;27;43531;-62
2021/12/01 07:20:56;;;;;;;0.20;0.20;;;21.70;46.30;;;;;;5079633;27;45053;-61
2021/12/01 07:23:25;;;;;;;0.20;0.20;;;21.70;46.30;;;;;;5096823;27;43878;-62
2021/12/01 07:26:03;;;;;;;0.28;0.28;;;21.70;46.30;;;;;;5081850;27;44110;-62
2021/12/01 07:28:31;;;;;;;0.32;0.32;;;21.70;46.30;;;;;;5074272;27;43510;-61
2021/12/01 07:30:59;;;;;;;0.45;0.25;;;21.70;46.30;;;;;;5097580;27;44340;-62
2021/12/01 07:33:29;;;;;;;0.30;0.30;;;21.80;46.30;;;;;;5094612;27;43412;-62
2021/12/01 07:35:57;;;;;;;0.30;0.30;;;21.80;46.30;;;;;;5075602;27;43591;-62
2021/12/01 07:38:24;;;;;;;0.40;0.35;;;21.80;46.30;;;;;;5086662;27;43605;-61
2021/12/01 07:40:52;;;;;;;0.40;0.40;;;21.80;46.20;;;;;;5075017;27;44068;-62
2021/12/01 07:43:19;;;;;;;0.32;0.32;;;21.80;46.20;;;;;;5083150;27;44161;-62
2021/12/01 07:45:46;;;;;;;0.20;0.20;;;21.80;46.10;;;;;;5073538;27;43455;-61
2021/12/01 07:48:14;;;;;;;0.40;0.40;;;21.80;46.80;;;;;;5092026;27;43451;-62
2021/12/01 07:50:42;;;;;;;0.32;0.32;;;21.90;46.20;;;;;;5083602;27;43929;-61
2021/12/01 07:53:09;;;;;;;0.88;0.45;;;21.90;46.20;;;;;;5065571;28;43567;-62
2021/12/01 07:55:38;;;;;;;0.30;0.30;;;21.90;46.20;;;;;;5070679;27;43587;-61
2021/12/01 07:58:06;;;;;;;0.65;0.40;;;21.90;46.10;;;;;;5068265;27;43714;-60
2021/12/01 08:00:33;;;;;;;0.80;0.60;;;21.90;46.10;;;;;;5062051;27;45045;-62
2021/12/01 08:03:01;;;;;;;0.50;0.50;;;22.00;46.50;;;;;;5066728;27;43590;-62
2021/12/01 08:05:28;;;;;;;1.20;0.47;;;22.00;46.20;;;;;;5067212;27;43593;-61
2021/12/01 08:07:57;;;;;;;1.15;0.60;;;22.00;46.30;;;;;;5053901;28;44088;-62
2021/12/01 08:10:25;;;;;;;0.55;0.55;;;22.00;46.30;;;;;;5054614;27;44087;-61
2021/12/01 08:12:53;;;;;;;1.63;0.63;;;22.00;46.20;;;;;;5066378;27;44821;-60
2021/12/01 08:15:39;;;;;;;0.60;0.60;;;22.00;46.20;;;;;;5067499;28;43623;-60
2021/12/01 08:18:06;;;;;;;1.08;0.73;;;22.10;46.30;;;;;;5067047;27;43671;-61
2021/12/01 08:20:36;;;;;;;1.38;0.70;;;22.10;46.30;;;;;;5052512;28;46155;-60
2021/12/01 08:23:04;;;;;;;0.93;0.80;;;22.10;46.30;;;;;;5062905;28;44232;-61
2021/12/01 08:25:31;;;;;;;1.30;0.88;;;22.10;46.30;;;;;;5067852;27;43783;-62
2021/12/01 08:28:01;;;;;;;1.90;0.70;;;22.10;46.30;;;;;;5070525;27;43637;-61
2021/12/01 08:30:30;;;;;;;0.98;0.90;;;22.10;46.30;;;;;;5066788;27;43978;-61
2021/12/01 08:32:58;;;;;;;1.08;0.80;;;22.20;47.20;;;;;;5067583;27;43705;-61
2021/12/01 08:35:25;;;;;;;1.20;0.77;;;22.10;46.40;;;;;;5065603;28;44972;-61
2021/12/01 08:37:53;;;;;;;1.30;0.95;;;22.10;46.40;;;;;;5070663;27;45027;-61
2021/12/01 08:40:20;;;;;;;1.48;0.73;;;22.20;46.50;;;;;;5066998;27;44244;-61
2021/12/01 08:42:47;;;;;;;0.73;0.50;;;22.20;46.50;;;;;;5066685;27;43649;-60
2021/12/01 08:45:15;;;;;;;1.13;0.80;;;22.20;46.50;;;;;;5066938;27;43590;-61
2021/12/01 08:47:48;;;;;;;1.70;0.73;;;22.20;46.50;;;;;;5068617;27;43696;-61
2021/12/01 08:50:15;;;;;;;1.65;1.15;;;22.20;46.50;;;;;;5067218;28;43885;-60
2021/12/01 08:52:45;;;;;;;2.05;0.90;;;22.20;46.40;;;;;;5067844;27;43510;-61
2021/12/01 08:55:12;;;;;;;2.00;0.90;;;22.20;46.50;;;;;;5063374;27;43572;-61
2021/12/01 08:57:46;;;;;;;1.48;0.90;;;22.20;46.30;;;;;;5070385;27;43664;-62
2021/12/01 09:00:15;;;;;;;1.15;1.00;;;22.20;46.40;;;;;;5064836;27;44185;-59
2021/12/01 09:02:42;;;;;;;1.40;1.00;;;22.20;46.30;;;;;;5057683;27;43593;-61
2021/12/01 09:05:10;;;;;;;3.45;1.45;;;22.30;46.30;;;;;;5064096;27;44164;-61
2021/12/01 09:07:38;;;;;;;2.10;1.08;;;22.30;46.30;;;;;;5062503;27;44279;-60
2021/12/01 09:10:07;;;;;;;1.67;1.20;;;22.30;46.20;;;;;;5063726;27;45058;-61
2021/12/01 09:12:35;;;;;;;2.50;1.23;;;22.30;46.20;;;;;;5063829;27;44308;-62
2021/12/01 09:15:03;;;;;;;2.35;1.10;;;22.30;46.20;;;;;;5064449;28;43600;-61
2021/12/01 09:17:30;;;;;;;2.25;1.10;;;22.20;46.20;;;;;;5066583;28;43607;-62
2021/12/01 09:19:57;;;;;;;3.63;1.40;;;22.20;46.20;;;;;;5064519;27;44793;-61
2021/12/01 09:22:25;;;;;;;2.92;1.00;;;22.30;46.80;;;;;;5064969;28;44063;-61
2021/12/01 09:24:52;;;;;;;2.35;1.40;;;22.30;46.10;;;;;;5072538;27;43571;-60
2021/12/01 09:27:19;;;;;;;2.53;1.15;;;22.30;46.00;;;;;;5066944;27;44442;-61
2021/12/01 09:29:47;;;;;;;2.83;1.30;;;22.30;46.00;;;;;;5060576;27;44306;-62
2021/12/01 09:32:14;;;;;;;2.53;1.30;;;22.30;46.00;;;;;;5061512;27;43683;-62
2021/12/01 09:34:44;;;;;;;1.67;0.98;;;22.30;46.00;;;;;;5066277;27;43668;-62
2021/12/01 09:37:11;;;;;;;1.58;0.90;;;22.30;45.80;;;;;;5062815;28;43543;-62
2021/12/01 09:39:38;;;;;;;2.83;1.42;;;22.40;45.90;;;;;;5068225;27;45116;-61
2021/12/01 09:42:08;;;;;;;1.58;0.98;;;22.40;45.90;;;;;;5068900;28;43607;-61
2021/12/01 09:44:37;;;;;;;1.50;1.10;;;22.40;45.90;;;;;;5068295;27;43585;-61
2021/12/01 09:47:06;;;;;;;2.28;1.20;;;22.40;45.80;;;;;;5069465;28;43732;-61
2021/12/01 09:49:34;;;;;;;3.35;1.40;;;22.40;45.80;;;;;;5071808;27;44284;-60
2021/12/01 09:52:02;;;;;;;3.35;1.10;;;22.40;45.90;;;;;;5068421;27;43686;-62
2021/12/01 09:54:30;;;;;;;3.67;1.20;;;22.50;45.80;;;;;;5067523;27;44550;-62
2021/12/01 09:56:57;;;;;;;1.95;1.23;;;22.50;45.70;;;;;;5069073;27;44338;-61
2021/12/01 09:59:24;;;;;;;3.08;1.33;;;22.50;45.70;;;;;;5070265;28;45123;-60
2021/12/01 10:01:52;;;;;;;2.50;1.25;;;22.50;45.70;;;;;;5066414;27;43964;-61
2021/12/01 10:04:19;;;;;;;2.55;1.20;;;22.50;45.70;;;;;;5052177;27;44435;-60
2021/12/01 10:06:47;;;;;;;2.42;1.30;;;22.50;45.70;;;;;;5069325;27;43607;-61
2021/12/01 10:09:18;;;;;;;2.47;1.13;;;22.50;45.60;;;;;;5064868;28;44978;-60
2021/12/01 10:11:45;;;;;;;2.97;1.40;;;22.50;45.50;;;;;;5067743;27;43926;-61
2021/12/01 10:14:18;;;;;;;2.25;1.08;;;22.60;45.60;;;;;;5069446;27;43587;-60
2021/12/01 10:16:50;;;;;;;2.75;1.27;;;22.50;45.50;;;;;;5068631;27;43675;-61
2021/12/01 10:19:18;;;;;;;2.55;1.20;;;22.60;45.40;;;;;;5069145;27;44067;-61
2021/12/01 10:21:48;;;;;;;2.33;1.35;;;22.60;45.50;;;;;;5067951;27;43713;-60
2021/12/01 10:24:24;;;;;;;3.23;1.50;;;22.60;45.50;;;;;;5066542;28;43661;-61
2021/12/01 10:27:02;;;;;;;1.95;1.40;;;22.60;45.40;;;;;;5068638;27;43699;-61
2021/12/01 10:29:41;;;;;;;3.50;1.20;;;22.60;45.40;;;;;;5070034;27;44984;-60
2021/12/01 10:32:08;;;;;;;3.90;1.20;;;22.60;45.50;;;;;;5068351;27;43739;-61
2021/12/01 10:34:43;;;;;;;3.22;1.70;;;22.60;45.40;;;;;;5069507;27;43552;-61
2021/12/01 10:37:29;;;;;;;3.08;1.48;;;22.60;45.30;;;;;;5069943;27;43550;-61
2021/12/01 10:40:21;;;;;;;3.47;1.60;;;22.70;45.40;;;;;;5067967;27;44989;-61
2021/12/01 10:42:56;;;;;;;3.58;1.50;;;22.70;45.30;;;;;;5066260;27;43566;-60
2021/12/01 10:45:34;;;;;;;4.38;1.30;;;22.70;45.20;;;;;;5067910;27;44219;-61
2021/12/01 10:48:04;;;;;;;3.75;1.77;;;22.70;45.10;;;;;;5069152;27;43679;-60
2021/12/01 10:50:34;;;;;;;2.38;1.30;;;22.60;45.20;;;;;;5064402;27;44922;-61
2021/12/01 10:53:06;;;;;;;2.60;1.30;;;22.70;45.20;;;;;;5067406;27;44624;-61
2021/12/01 10:55:40;;;;;;;3.85;1.70;;;22.70;45.20;;;;;;5041176;27;43591;-61
2021/12/01 10:58:11;;;;;;;3.25;1.50;;;22.70;45.10;;;;;;5067253;27;43519;-62
2021/12/01 11:00:43;;;;;;;4.25;1.60;;;22.70;45.10;;;;;;5040853;27;44263;-60
2021/12/01 11:03:20;;;;;;;2.50;1.40;;;22.70;45.10;;;;;;5063700;27;43665;-61
2021/12/01 11:05:52;;;;;;;4.15;1.63;;;22.70;45.00;;;;;;5069409;27;43661;-60
2021/12/01 11:08:29;;;;;;;4.57;1.80;;;22.70;45.00;;;;;;5059737;27;43811;-61
2021/12/01 11:11:04;;;;;;;4.55;1.70;;;22.70;44.90;;;;;;5070137;27;43658;-61
2021/12/01 11:13:32;;;;;;;4.65;1.77;;;22.70;44.90;;;;;;5069696;27;43546;-61
2021/12/01 11:16:03;;;;;;;5.32;1.85;;;22.70;45.00;;;;;;5056551;27;44168;-60
2021/12/01 11:18:51;;;;;;;5.18;1.80;;;22.80;45.00;;;;;;5066315;27;43680;-61
2021/12/01 11:21:24;;;;;;;4.75;1.98;;;22.80;45.00;;;;;;5056560;27;44131;-60
2021/12/01 11:23:59;;;;;;;3.58;1.85;;;22.80;44.90;;;;;;5066558;27;43539;-61
2021/12/01 11:26:30;;;;;;;4.70;2.15;;;22.80;44.80;;;;;;5066919;27;43778;-61
2021/12/01 11:29:02;;;;;;;6.18;2.35;;;22.80;44.70;;;;;;5068128;27;43727;-61
2021/12/01 11:31:33;;;;;;;5.65;2.50;;;22.80;45.00;;;;;;5056805;27;44231;-60
2021/12/01 11:34:07;;;;;;;6.05;2.53;;;22.80;44.60;;;;;;5067809;27;43576;-59
2021/12/01 11:36:38;;;;;;;3.78;1.98;;;22.80;44.60;;;;;;5073551;27;43552;-60
2021/12/01 11:39:19;;;;;;;5.03;2.08;;;22.80;44.60;;;;;;5056261;28;43653;-62
2021/12/01 11:41:49;;;;;;;5.45;2.42;;;22.80;44.50;;;;;;5067230;27;44011;-60
2021/12/01 11:44:18;;;;;;;5.55;2.28;;;22.80;44.30;;;;;;5066669;27;43546;-60
2021/12/01 11:46:50;;;;;;;6.95;2.65;;;22.80;44.20;;;;;;5065203;27;43580;-60
2021/12/01 11:49:21;;;;;;;5.63;2.42;;;22.80;44.20;;;;;;5052833;27;43646;-61
2021/12/01 11:52:00;;;;;;;6.18;2.65;;;22.80;44.00;;;;;;5063933;27;44770;-62
2021/12/01 11:54:28;;;;;;;6.00;2.65;;;22.80;44.10;;;;;;5071710;27;43968;-60
2021/12/01 11:57:06;;;;;;;5.82;2.70;;;22.80;44.10;;;;;;5068370;27;43624;-62
2021/12/01 11:59:36;;;;;;;6.28;2.75;;;22.80;44.00;;;;;;5049490;27;43669;-59
2021/12/01 12:02:20;;;;;;;7.90;3.00;;;22.80;44.20;;;;;;5062212;28;43893;-61
2021/12/01 12:04:52;;;;;;;5.15;2.42;;;22.80;44.00;;;;;;5061603;27;43857;-61
2021/12/01 12:07:29;;;;;;;7.10;2.97;;;22.80;43.90;;;;;;5070762;27;44010;-60
2021/12/01 12:10:17;;;;;;;7.70;2.63;;;22.80;44.00;;;;;;5048378;27;43610;-61
2021/12/01 12:13:00;;;;;;;6.30;2.85;;;22.80;43.90;;;;;;5063167;27;44044;-61
2021/12/01 12:15:45;;;;;;;6.47;2.80;;;22.80;43.90;;;;;;5067480;27;43595;-61
2021/12/01 12:18:35;;;;;;;7.00;2.80;;;22.90;43.90;;;;;;5063263;27;43569;-62
2021/12/01 12:21:20;;;;;;;5.72;2.67;;;22.90;43.90;;;;;;5051164;27;43581;-61
2021/12/01 12:23:52;;;;;;;5.03;2.40;;;22.90;43.90;;;;;;5063212;27;44412;-61
2021/12/01 12:26:59;;;;;;;7.68;2.58;;;22.80;43.90;;;;;;5065079;27;43921;-60
2021/12/01 12:29:29;;;;;;;5.38;2.55;;;22.90;43.70;;;;;;5037249;27;43640;-60
2021/12/01 12:32:21;;;;;;;5.20;2.53;;;22.90;43.80;;;;;;5058755;28;43645;-60
2021/12/01 12:34:51;;;;;;;4.88;2.60;;;22.90;43.60;;;;;;5058426;27;43810;-62
2021/12/01 12:37:26;;;;;;;6.30;2.78;;;22.90;43.70;;;;;;5066600;27;43863;-60
2021/12/01 12:39:56;;;;;;;5.65;2.60;;;22.90;43.60;;;;;;5049271;27;43833;-61
2021/12/01 12:42:24;;;;;;;6.80;2.53;;;22.90;43.50;;;;;;5068524;27;43758;-61
2021/12/01 12:44:57;;;;;;;6.28;2.85;;;22.90;43.50;;;;;;5065968;28;46076;-61
2021/12/01 12:47:37;;;;;;;4.40;2.53;;;22.90;43.40;;;;;;5055225;28;43996;-61
2021/12/01 12:50:34;;;;;;;5.28;2.78;;;22.90;43.40;;;;;;5041447;27;44800;-61
2021/12/01 12:53:06;;;;;;;5.97;2.65;;;22.90;43.40;;;;;;5048651;28;43539;-61
2021/12/01 12:55:42;;;;;;;5.63;2.20;;;22.90;43.40;;;;;;5064636;28;45009;-61
2021/12/01 12:58:14;;;;;;;5.25;2.60;;;23.00;43.30;;;;;;5061045;27;43986;-61
2021/12/01 13:00:49;;;;;;;4.90;2.53;;;22.90;43.30;;;;;;5042427;28;43609;-61
2021/12/01 13:03:23;;;;;;;5.05;2.30;;;23.00;43.30;;;;;;5056008;28;43919;-61
2021/12/01 13:05:55;;;;;;;3.60;2.17;;;23.00;43.30;;;;;;5062039;27;43803;-60
2021/12/01 13:08:28;;;;;;;4.60;2.58;;;22.90;43.30;;;;;;5054130;27;43576;-60